SBBR/BSB METAR and TAF weather

Enter ICAO airport designator
Station Type Date Time Source
SBBR METAR 2021/01/20 22:00 UTC NOAA

SBBR 202200Z 09010KT 9999 FEW040 SCT100 26/15 Q1016


Station Type Date Time Source
SBBR Decoded METAR 2021/01/20 22:00 UTC NOAA

Brasilia Aeroporto , Brazil (SBBR) 15-52S 047-56W 1061M
Jan 20, 2021 - 05:00 PM EST / 2021.01.20 2200 UTC
Wind: from the E (090 degrees) at 12 MPH (10 KT):0
Visibility: greater than 7 mile(s):0
Sky conditions: partly cloudy
Temperature: 78 F (26 C)
Dew Point: 59 F (15 C)
Relative Humidity: 50%
Pressure (altimeter): 30.00 in. Hg (1016 hPa)
ob: SBBR 202200Z 09010KT 9999 FEW040 SCT100 26/15 Q1016
cycle: 22

Station Type Date Time Source
SBBR TAF 2021/01/20 18:27 UTC NOAA

TAF SBBR 201540Z 2018/2118 08007KT 9999 SCT035TX29/2018Z TN19/2109Z
BECMG 2101/2103 09004KT SCT021
BECMG 2105/2107 19002KT
BECMG 2112/2114 06010KT
BECMG 2115/2117 SCT035
RMK PGM

Example: see airport list